Coral Princess — ZCDF4 — position and weather

sailwx.info

Track history (hours):
 
Tides and Currents Weather Stations Pressure Air Temp Water Temp Dewpoint Dewpoint Depression Visibility Wind Speed Wind Dir Waves Ship Positions

Coral Princess

Operator: Princess Cruises

Last reported at 2017-Jun-26 13:00 UTC. Time now 2017-Jun-26 17:16 UTC.
Position N 55°12' W 131°30'.

Type: Passenger vessel. MMSI: 310376000.

Wind from 270 at 18 knots

Barometer 1015.7 mb
Air temperature 11.0 ° C
Visibility: greater than 10.8 NM
Dewpoint 10.0 ° C
Water temperature 13.0 ° C

Date/timePositionNaut miles runAvg speedWind from/ knotsBaromVisibWave heightAir tempDewpointWater temp
2017-Jun-26 13:00N 55°12' W 131°30'20613.5 270 / 181015.710.8 11.010.013.0
2017-Jun-25 21:46N 52°01' W 129°19'414.6
2017-Jun-25 21:30N 51°58' W 129°15'815.4
2017-Jun-25 21:01N 51°52' W 129°07'4238.7
2017-Jun-25 21:00N 51°48' W 129°06'4 8.4 270 / 181017.910.8 12.010.112.0
2017-Jun-25 20:30N 51°46' W 129°00'815.1
2017-Jun-25 20:00N 51°40' W 128°53'714.6
2017-Jun-25 19:30N 51°34' W 128°45'714.7
2017-Jun-25 19:00N 51°28' W 128°38'714.8
2017-Jun-25 18:30N 51°23' W 128°31'714.8
2017-Jun-25 18:00N 51°17' W 128°23'714.7
2017-Jun-25 17:30N 51°11' W 128°16'714.7
2017-Jun-25 17:00N 51°07' W 128°06'714.4
2017-Jun-25 16:30N 51°03' W 127°57'714.7
2017-Jun-25 16:00N 50°60' W 127°46'510.7
2017-Jun-25 15:30N 50°56' W 127°41'611.5
2017-Jun-25 15:01N 50°52' W 127°34'714.7
2017-Jun-25 14:31N 50°49' W 127°23'1 2.4
2017-Jun-25 14:00N 50°48' W 127°24'1530.7 330 / 151017.710.8 11.510.510.0
2017-Jun-25 13:30N 50°44' W 127°01'714.2
2017-Jun-25 13:00N 50°40' W 126°51'713.7
2017-Jun-25 12:28N 50°35' W 126°43'612.9
2017-Jun-25 12:00N 50°31' W 126°37'814.0
2017-Jun-25 11:27N 50°30' W 126°25'1214.2
2017-Jun-25 10:35N 50°28' W 126°06'114.2
2017-Jun-25 10:30N 50°27' W 126°04'714.2
2017-Jun-25 10:00N 50°24' W 125°54'813.4
2017-Jun-25 09:24N 50°22' W 125°42'914.7
2017-Jun-25 08:45N 50°20' W 125°27'313.0
2017-Jun-25 08:30N 50°18' W 125°25'815.9
2017-Jun-25 08:00N 50°10' W 125°22'510.8
2017-Jun-25 07:30N 50°05' W 125°17'713.8
2017-Jun-25 07:00N 49°59' W 125°12'816.0
2017-Jun-25 06:30N 49°54' W 125°03'815.8
2017-Jun-25 06:00N 49°49' W 124°54'815.5
2017-Jun-25 05:31N 49°43' W 124°45'815.2
2017-Jun-25 05:00N 49°37' W 124°38'714.9
2017-Jun-25 04:31N 49°32' W 124°30'714.4
2017-Jun-25 04:00N 49°27' W 124°22'714.2
2017-Jun-25 03:30N 49°24' W 124°12'714.6
2017-Jun-25 03:00N 49°23' W 124°00'714.9
2017-Jun-25 02:30N 49°22' W 123°49'715.1
2017-Jun-25 02:00N 49°20' W 123°38'815.7
2017-Jun-25 01:30N 49°19' W 123°26'815.9
2017-Jun-25 01:01N 49°19' W 123°14'510.6
2017-Jun-25 00:30N 49°18' W 123°06'0 0.7
2017-Jun-24 23:59N 49°17' W 123°06'0 0.0
2017-Jun-24 23:28N 49°17' W 123°06'0 0.0
2017-Jun-24 22:55N 49°17' W 123°06'0 0.0
2017-Jun-24 22:29N 49°17' W 123°06'0 0.0
2017-Jun-24 21:58N 49°17' W 123°06'0 0.0
2017-Jun-24 21:29N 49°17' W 123°06'0 0.0
2017-Jun-24 20:59N 49°17' W 123°06'0 0.0
2017-Jun-24 20:29N 49°17' W 123°06'0 0.0
2017-Jun-24 19:58N 49°17' W 123°06'0 0.0
2017-Jun-24 19:28N 49°17' W 123°06'0 0.0
2017-Jun-24 18:59N 49°17' W 123°06'0 0.0
2017-Jun-24 18:28N 49°17' W 123°06'0 0.0
2017-Jun-24 17:59N 49°17' W 123°06'0 0.0
2017-Jun-24 17:28N 49°17' W 123°06'0 0.0
2017-Jun-24 16:55N 49°17' W 123°06'0 0.0
2017-Jun-24 16:29N 49°17' W 123°06'0 0.0
2017-Jun-24 15:58N 49°17' W 123°06'0 0.0
2017-Jun-24 15:28N 49°17' W 123°06'0 0.0
2017-Jun-24 14:58N 49°17' W 123°06'0 0.0
2017-Jun-24 14:00N 49°17' W 123°06'0 1.0
2017-Jun-24 13:30N 49°18' W 123°06'5 9.9
2017-Jun-24 13:00N 49°19' W 123°14'612.7
2017-Jun-24 12:30N 49°19' W 123°24'816.6
2017-Jun-24 12:00N 49°20' W 123°36'2152.8
2017-Jun-24 12:00N 49°18' W 123°36'919.3 330 / 151021.610.8 16.513.912.0
2017-Jun-24 11:30N 49°22' W 123°49'918.0
2017-Jun-24 11:00N 49°23' W 124°03'918.1
2017-Jun-24 10:30N 49°25' W 124°17'1020.6
2017-Jun-24 10:01N 49°30' W 124°30'1121.4
2017-Jun-24 09:31N 49°38' W 124°41'1121.1
2017-Jun-24 09:00N 49°46' W 124°52'1020.9
2017-Jun-24 08:31N 49°53' W 125°03'918.3
2017-Jun-24 08:00N 50°01' W 125°12'714.2
2017-Jun-24 07:30N 50°06' W 125°18'510.7
2017-Jun-24 07:00N 50°11' W 125°22'4 7.5
2017-Jun-24 06:28N 50°15' W 125°23'511.4
2017-Jun-24 06:00N 50°20' W 125°26'1311.3
2017-Jun-24 04:50N 50°22' W 125°46'2213.7
2017-Jun-24 03:16N 50°29' W 126°18'1613.8
2017-Jun-24 02:08N 50°34' W 126°42'214.3
2017-Jun-24 01:59N 50°36' W 126°44'816.4
2017-Jun-24 01:30N 50°41' W 126°53'714.8
2017-Jun-24 01:00N 50°44' W 127°04'714.6
2017-Jun-24 00:30N 50°47' W 127°15'714.4
2017-Jun-24 00:00N 50°50' W 127°25'713.9
2017-Jun-23 23:30N 50°53' W 127°35'714.4
2017-Jun-23 23:00N 50°58' W 127°44'613.0
2017-Jun-23 22:31N 51°02' W 127°51'714.2
2017-Jun-23 22:01N 51°05' W 128°01'714.4
2017-Jun-23 21:31N 51°09' W 128°11'714.3
2017-Jun-23 21:00N 51°13' W 128°20'715.1
2017-Jun-23 20:31N 51°20' W 128°26'714.8
2017-Jun-23 20:01N 51°26' W 128°33'714.1
2017-Jun-23 19:31N 51°32' W 128°40'714.6
2017-Jun-23 19:01N 51°37' W 128°47'715.0
2017-Jun-23 18:31N 51°43' W 128°55'714.6
2017-Jun-23 18:00N 51°49' W 129°02'714.5
2017-Jun-23 17:31N 51°55' W 129°09'714.9
2017-Jun-23 17:00N 52°00' W 129°17'714.9
2017-Jun-23 16:30N 52°06' W 129°25'815.1
2017-Jun-23 16:00N 52°12' W 129°32'815.0
2017-Jun-23 15:30N 52°19' W 129°38'714.9
2017-Jun-23 15:00N 52°25' W 129°45'715.1
2017-Jun-23 14:31N 52°31' W 129°51'814.7
2017-Jun-23 14:00N 52°24' W 129°48'25610.2 330 / 201028.010.8 12.010.112.0
2017-Jun-22 13:00N 56°00' W 133°42'96 9.6 150 / 131029.610.8 10.510.5 9.8
2017-Jun-22 03:00N 57°36' W 133°48'38 2.7 160 / 201025.610.8 11.9 9.110.4
2017-Jun-21 13:00N 58°12' W 134°12'47 1.4 050 / 171009.610.8 10.5 8.510.0
2017-Jun-20 04:47N 58°16' W 135°40'613.0
2017-Jun-20 04:21N 58°18' W 135°50'412.3
2017-Jun-20 04:00N 58°21' W 135°57'611.6
2017-Jun-20 03:30N 58°26' W 135°59'5 9.4
2017-Jun-20 03:00N 58°30' W 136°03'815.2
2017-Jun-20 02:30N 58°38' W 136°03'3 6.0
2017-Jun-20 02:00N 58°41' W 136°06'1211.9
2017-Jun-20 01:00N 58°48' W 136°24'11 1.7 150 / 171009.610.8 11.5 9.510.0
2017-Jun-19 18:38N 58°41' W 136°09'214.1
2017-Jun-19 18:30N 58°40' W 136°06'3 5.1
2017-Jun-19 18:00N 58°38' W 136°03'815.1
2017-Jun-19 17:30N 58°30' W 136°03'612.3
2017-Jun-19 17:00N 58°25' W 135°58'510.3
2017-Jun-19 16:30N 58°20' W 136°04'3911.0
2017-Jun-19 13:00N 58°06' W 137°12'   090 / 351006.310.8 12.0 9.010.0
2017-Jun-17 05:00N 61°00' W 147°54'   1009.110.8 9.5 8.5 8.0
Track history (hours):
 
Tides and Currents Weather Stations Pressure Air Temp Water Temp Dewpoint Dewpoint Depression Visibility Wind Speed Wind Dir Waves Ship Positions

Coral Princess

Operator: Princess Cruises

Last reported at 2017-Jun-26 13:00 UTC. Time now 2017-Jun-26 17:16 UTC.
Position N 55°12' W 131°30'.

Type: Passenger vessel. MMSI: 310376000.

Wind from 270 at 18 knots

Barometer 1015.7 mb
Air temperature 11.0 ° C
Visibility: greater than 10.8 NM
Dewpoint 10.0 ° C
Water temperature 13.0 ° C

Date/timePositionNaut miles runAvg speedWind from/ knotsBaromVisibWave heightAir tempDewpointWater temp
2017-Jun-26 13:00N 55°12' W 131°30'20613.5 270 / 181015.710.8 11.010.013.0
2017-Jun-25 21:46N 52°01' W 129°19'414.6
2017-Jun-25 21:30N 51°58' W 129°15'815.4
2017-Jun-25 21:01N 51°52' W 129°07'4238.7
2017-Jun-25 21:00N 51°48' W 129°06'4 8.4 270 / 181017.910.8 12.010.112.0
2017-Jun-25 20:30N 51°46' W 129°00'815.1
2017-Jun-25 20:00N 51°40' W 128°53'714.6
2017-Jun-25 19:30N 51°34' W 128°45'714.7
2017-Jun-25 19:00N 51°28' W 128°38'714.8
2017-Jun-25 18:30N 51°23' W 128°31'714.8
2017-Jun-25 18:00N 51°17' W 128°23'714.7
2017-Jun-25 17:30N 51°11' W 128°16'714.7
2017-Jun-25 17:00N 51°07' W 128°06'714.4
2017-Jun-25 16:30N 51°03' W 127°57'714.7
2017-Jun-25 16:00N 50°60' W 127°46'510.7
2017-Jun-25 15:30N 50°56' W 127°41'611.5
2017-Jun-25 15:01N 50°52' W 127°34'714.7
2017-Jun-25 14:31N 50°49' W 127°23'1 2.4
2017-Jun-25 14:00N 50°48' W 127°24'1530.7 330 / 151017.710.8 11.510.510.0
2017-Jun-25 13:30N 50°44' W 127°01'714.2
2017-Jun-25 13:00N 50°40' W 126°51'713.7
2017-Jun-25 12:28N 50°35' W 126°43'612.9
2017-Jun-25 12:00N 50°31' W 126°37'814.0
2017-Jun-25 11:27N 50°30' W 126°25'1214.2
2017-Jun-25 10:35N 50°28' W 126°06'114.2
2017-Jun-25 10:30N 50°27' W 126°04'714.2
2017-Jun-25 10:00N 50°24' W 125°54'813.4
2017-Jun-25 09:24N 50°22' W 125°42'914.7
2017-Jun-25 08:45N 50°20' W 125°27'313.0
2017-Jun-25 08:30N 50°18' W 125°25'815.9
2017-Jun-25 08:00N 50°10' W 125°22'510.8
2017-Jun-25 07:30N 50°05' W 125°17'713.8
2017-Jun-25 07:00N 49°59' W 125°12'816.0
2017-Jun-25 06:30N 49°54' W 125°03'815.8
2017-Jun-25 06:00N 49°49' W 124°54'815.5
2017-Jun-25 05:31N 49°43' W 124°45'815.2
2017-Jun-25 05:00N 49°37' W 124°38'714.9
2017-Jun-25 04:31N 49°32' W 124°30'714.4
2017-Jun-25 04:00N 49°27' W 124°22'714.2
2017-Jun-25 03:30N 49°24' W 124°12'714.6
2017-Jun-25 03:00N 49°23' W 124°00'714.9
2017-Jun-25 02:30N 49°22' W 123°49'715.1
2017-Jun-25 02:00N 49°20' W 123°38'815.7
2017-Jun-25 01:30N 49°19' W 123°26'815.9
2017-Jun-25 01:01N 49°19' W 123°14'510.6
2017-Jun-25 00:30N 49°18' W 123°06'0 0.7
2017-Jun-24 23:59N 49°17' W 123°06'0 0.0
2017-Jun-24 23:28N 49°17' W 123°06'0 0.0
2017-Jun-24 22:55N 49°17' W 123°06'0 0.0
2017-Jun-24 22:29N 49°17' W 123°06'0 0.0
2017-Jun-24 21:58N 49°17' W 123°06'0 0.0
2017-Jun-24 21:29N 49°17' W 123°06'0 0.0
2017-Jun-24 20:59N 49°17' W 123°06'0 0.0
2017-Jun-24 20:29N 49°17' W 123°06'0 0.0
2017-Jun-24 19:58N 49°17' W 123°06'0 0.0
2017-Jun-24 19:28N 49°17' W 123°06'0 0.0
2017-Jun-24 18:59N 49°17' W 123°06'0 0.0
2017-Jun-24 18:28N 49°17' W 123°06'0 0.0
2017-Jun-24 17:59N 49°17' W 123°06'0 0.0
2017-Jun-24 17:28N 49°17' W 123°06'0 0.0
2017-Jun-24 16:55N 49°17' W 123°06'0 0.0
2017-Jun-24 16:29N 49°17' W 123°06'0 0.0
2017-Jun-24 15:58N 49°17' W 123°06'0 0.0
2017-Jun-24 15:28N 49°17' W 123°06'0 0.0
2017-Jun-24 14:58N 49°17' W 123°06'0 0.0
2017-Jun-24 14:00N 49°17' W 123°06'0 1.0
2017-Jun-24 13:30N 49°18' W 123°06'5 9.9
2017-Jun-24 13:00N 49°19' W 123°14'612.7
2017-Jun-24 12:30N 49°19' W 123°24'816.6
2017-Jun-24 12:00N 49°20' W 123°36'2152.8
2017-Jun-24 12:00N 49°18' W 123°36'919.3 330 / 151021.610.8 16.513.912.0
2017-Jun-24 11:30N 49°22' W 123°49'918.0
2017-Jun-24 11:00N 49°23' W 124°03'918.1
2017-Jun-24 10:30N 49°25' W 124°17'1020.6
2017-Jun-24 10:01N 49°30' W 124°30'1121.4
2017-Jun-24 09:31N 49°38' W 124°41'1121.1
2017-Jun-24 09:00N 49°46' W 124°52'1020.9
2017-Jun-24 08:31N 49°53' W 125°03'918.3
2017-Jun-24 08:00N 50°01' W 125°12'714.2
2017-Jun-24 07:30N 50°06' W 125°18'510.7
2017-Jun-24 07:00N 50°11' W 125°22'4 7.5
2017-Jun-24 06:28N 50°15' W 125°23'511.4
2017-Jun-24 06:00N 50°20' W 125°26'1311.3
2017-Jun-24 04:50N 50°22' W 125°46'2213.7
2017-Jun-24 03:16N 50°29' W 126°18'1613.8
2017-Jun-24 02:08N 50°34' W 126°42'214.3
2017-Jun-24 01:59N 50°36' W 126°44'816.4
2017-Jun-24 01:30N 50°41' W 126°53'714.8
2017-Jun-24 01:00N 50°44' W 127°04'714.6
2017-Jun-24 00:30N 50°47' W 127°15'714.4
2017-Jun-24 00:00N 50°50' W 127°25'713.9
2017-Jun-23 23:30N 50°53' W 127°35'714.4
2017-Jun-23 23:00N 50°58' W 127°44'613.0
2017-Jun-23 22:31N 51°02' W 127°51'714.2
2017-Jun-23 22:01N 51°05' W 128°01'714.4
2017-Jun-23 21:31N 51°09' W 128°11'714.3
2017-Jun-23 21:00N 51°13' W 128°20'715.1
2017-Jun-23 20:31N 51°20' W 128°26'714.8
2017-Jun-23 20:01N 51°26' W 128°33'714.1
2017-Jun-23 19:31N 51°32' W 128°40'714.6
2017-Jun-23 19:01N 51°37' W 128°47'715.0
2017-Jun-23 18:31N 51°43' W 128°55'714.6
2017-Jun-23 18:00N 51°49' W 129°02'714.5
2017-Jun-23 17:31N 51°55' W 129°09'714.9
2017-Jun-23 17:00N 52°00' W 129°17'714.9
2017-Jun-23 16:30N 52°06' W 129°25'815.1
2017-Jun-23 16:00N 52°12' W 129°32'815.0
2017-Jun-23 15:30N 52°19' W 129°38'714.9
2017-Jun-23 15:00N 52°25' W 129°45'715.1
2017-Jun-23 14:31N 52°31' W 129°51'814.7
2017-Jun-23 14:00N 52°24' W 129°48'25610.2 330 / 201028.010.8 12.010.112.0
2017-Jun-22 13:00N 56°00' W 133°42'96 9.6 150 / 131029.610.8 10.510.5 9.8
2017-Jun-22 03:00N 57°36' W 133°48'38 2.7 160 / 201025.610.8 11.9 9.110.4
2017-Jun-21 13:00N 58°12' W 134°12'47 1.4 050 / 171009.610.8 10.5 8.510.0
2017-Jun-20 04:47N 58°16' W 135°40'613.0
2017-Jun-20 04:21N 58°18' W 135°50'412.3
2017-Jun-20 04:00N 58°21' W 135°57'611.6
2017-Jun-20 03:30N 58°26' W 135°59'5 9.4
2017-Jun-20 03:00N 58°30' W 136°03'815.2
2017-Jun-20 02:30N 58°38' W 136°03'3 6.0
2017-Jun-20 02:00N 58°41' W 136°06'1211.9
2017-Jun-20 01:00N 58°48' W 136°24'11 1.7 150 / 171009.610.8 11.5 9.510.0
2017-Jun-19 18:38N 58°41' W 136°09'214.1
2017-Jun-19 18:30N 58°40' W 136°06'3 5.1
2017-Jun-19 18:00N 58°38' W 136°03'815.1
2017-Jun-19 17:30N 58°30' W 136°03'612.3
2017-Jun-19 17:00N 58°25' W 135°58'510.3
2017-Jun-19 16:30N 58°20' W 136°04'3911.0
2017-Jun-19 13:00N 58°06' W 137°12'   090 / 351006.310.8 12.0 9.010.0
2017-Jun-17 05:00N 61°00' W 147°54'   1009.110.8 9.5 8.5 8.0

Dump ship's entire track history